sensor_id;sensor_type;location;lat;lon;timestamp;P1;durP1;ratioP1;P2;durP2;ratioP2
75506;SDS011;64086;43.220;27.878;2023-08-30T00:01:29;18.48;;;16.63;;
75506;SDS011;64086;43.220;27.878;2023-08-30T00:03:55;17.73;;;16.17;;
75506;SDS011;64086;43.220;27.878;2023-08-30T00:06:20;17.75;;;16.13;;
75506;SDS011;64086;43.220;27.878;2023-08-30T00:08:45;17.10;;;15.75;;
75506;SDS011;64086;43.220;27.878;2023-08-30T00:11:11;16.98;;;15.32;;
75506;SDS011;64086;43.220;27.878;2023-08-30T00:13:36;17.75;;;16.15;;
75506;SDS011;64086;43.220;27.878;2023-08-30T00:16:02;17.77;;;16.25;;
75506;SDS011;64086;43.220;27.878;2023-08-30T00:18:28;18.08;;;16.13;;
75506;SDS011;64086;43.220;27.878;2023-08-30T00:20:53;17.60;;;16.08;;
75506;SDS011;64086;43.220;27.878;2023-08-30T00:23:19;17.65;;;15.77;;
75506;SDS011;64086;43.220;27.878;2023-08-30T00:25:44;20.02;;;16.75;;
75506;SDS011;64086;43.220;27.878;2023-08-30T00:28:10;17.58;;;15.98;;
75506;SDS011;64086;43.220;27.878;2023-08-30T00:30:35;17.85;;;16.33;;
75506;SDS011;64086;43.220;27.878;2023-08-30T00:33:01;27.38;;;19.27;;
75506;SDS011;64086;43.220;27.878;2023-08-30T00:35:26;25.63;;;17.63;;
75506;SDS011;64086;43.220;27.878;2023-08-30T00:37:52;56.40;;;22.88;;
75506;SDS011;64086;43.220;27.878;2023-08-30T00:40:17;33.17;;;19.10;;
75506;SDS011;64086;43.220;27.878;2023-08-30T00:42:43;22.52;;;17.20;;
75506;SDS011;64086;43.220;27.878;2023-08-30T00:45:08;18.67;;;16.52;;
75506;SDS011;64086;43.220;27.878;2023-08-30T00:47:34;18.33;;;16.73;;
75506;SDS011;64086;43.220;27.878;2023-08-30T00:50:00;18.60;;;17.10;;
75506;SDS011;64086;43.220;27.878;2023-08-30T00:52:26;18.90;;;16.98;;
75506;SDS011;64086;43.220;27.878;2023-08-30T00:54:51;20.45;;;17.83;;
75506;SDS011;64086;43.220;27.878;2023-08-30T00:57:17;23.88;;;18.75;;
75506;SDS011;64086;43.220;27.878;2023-08-30T00:59:42;25.65;;;17.73;;
75506;SDS011;64086;43.220;27.878;2023-08-30T01:02:08;19.65;;;17.65;;
75506;SDS011;64086;43.220;27.878;2023-08-30T01:04:34;18.40;;;16.75;;
75506;SDS011;64086;43.220;27.878;2023-08-30T01:06:59;23.80;;;17.50;;
75506;SDS011;64086;43.220;27.878;2023-08-30T01:09:25;19.30;;;17.15;;
75506;SDS011;64086;43.220;27.878;2023-08-30T01:12:13;18.83;;;17.02;;
75506;SDS011;64086;43.220;27.878;2023-08-30T01:14:49;18.55;;;16.83;;
75506;SDS011;64086;43.220;27.878;2023-08-30T01:17:18;19.50;;;17.63;;
75506;SDS011;64086;43.220;27.878;2023-08-30T01:19:51;19.10;;;17.42;;
75506;SDS011;64086;43.220;27.878;2023-08-30T01:28:11;19.75;;;18.08;;
75506;SDS011;64086;43.220;27.878;2023-08-30T01:30:37;18.98;;;17.40;;
75506;SDS011;64086;43.220;27.878;2023-08-30T01:33:06;19.40;;;17.83;;
75506;SDS011;64086;43.220;27.878;2023-08-30T01:35:33;20.00;;;18.08;;
75506;SDS011;64086;43.220;27.878;2023-08-30T01:38:01;19.08;;;17.23;;
75506;SDS011;64086;43.220;27.878;2023-08-30T01:40:28;20.23;;;18.25;;
75506;SDS011;64086;43.220;27.878;2023-08-30T01:42:55;19.40;;;17.48;;
75506;SDS011;64086;43.220;27.878;2023-08-30T01:45:21;18.42;;;16.77;;
75506;SDS011;64086;43.220;27.878;2023-08-30T01:47:48;18.45;;;16.48;;
75506;SDS011;64086;43.220;27.878;2023-08-30T01:50:14;18.67;;;16.88;;
75506;SDS011;64086;43.220;27.878;2023-08-30T01:52:40;19.15;;;17.30;;
75506;SDS011;64086;43.220;27.878;2023-08-30T01:55:07;18.85;;;17.08;;
75506;SDS011;64086;43.220;27.878;2023-08-30T01:57:33;32.08;;;18.75;;
75506;SDS011;64086;43.220;27.878;2023-08-30T01:59:58;25.83;;;19.73;;
75506;SDS011;64086;43.220;27.878;2023-08-30T02:02:24;24.05;;;18.40;;
75506;SDS011;64086;43.220;27.878;2023-08-30T02:04:49;19.70;;;17.88;;
75506;SDS011;64086;43.220;27.878;2023-08-30T02:07:16;20.10;;;18.35;;
75506;SDS011;64086;43.220;27.878;2023-08-30T02:12:19;20.20;;;18.50;;
75506;SDS011;64086;43.220;27.878;2023-08-30T02:14:47;19.55;;;17.85;;
75506;SDS011;64086;43.220;27.878;2023-08-30T02:17:14;22.17;;;19.00;;
75506;SDS011;64086;43.220;27.878;2023-08-30T02:19:40;43.67;;;21.40;;
75506;SDS011;64086;43.220;27.878;2023-08-30T02:22:07;54.33;;;23.13;;
75506;SDS011;64086;43.220;27.878;2023-08-30T02:24:32;39.75;;;20.33;;
75506;SDS011;64086;43.220;27.878;2023-08-30T02:26:58;34.40;;;19.98;;
75506;SDS011;64086;43.220;27.878;2023-08-30T02:29:23;23.08;;;20.17;;
75506;SDS011;64086;43.220;27.878;2023-08-30T02:31:49;23.83;;;20.63;;
75506;SDS011;64086;43.220;27.878;2023-08-30T02:34:14;25.42;;;20.45;;
75506;SDS011;64086;43.220;27.878;2023-08-30T02:36:40;22.13;;;19.98;;
75506;SDS011;64086;43.220;27.878;2023-08-30T02:39:05;20.60;;;18.90;;
75506;SDS011;64086;43.220;27.878;2023-08-30T02:41:31;20.63;;;18.52;;
75506;SDS011;64086;43.220;27.878;2023-08-30T02:43:56;20.75;;;18.75;;
75506;SDS011;64086;43.220;27.878;2023-08-30T02:46:21;20.58;;;18.65;;
75506;SDS011;64086;43.220;27.878;2023-08-30T02:48:47;20.10;;;18.15;;
75506;SDS011;64086;43.220;27.878;2023-08-30T02:51:12;20.75;;;18.70;;
75506;SDS011;64086;43.220;27.878;2023-08-30T02:53:38;20.30;;;18.17;;
75506;SDS011;64086;43.220;27.878;2023-08-30T02:56:03;20.98;;;18.90;;
75506;SDS011;64086;43.220;27.878;2023-08-30T02:58:29;23.00;;;19.10;;
75506;SDS011;64086;43.220;27.878;2023-08-30T03:00:54;22.20;;;19.23;;
75506;SDS011;64086;43.220;27.878;2023-08-30T03:03:19;21.00;;;19.02;;
75506;SDS011;64086;43.220;27.878;2023-08-30T03:05:45;22.52;;;19.63;;
75506;SDS011;64086;43.220;27.878;2023-08-30T03:08:10;22.15;;;19.92;;
75506;SDS011;64086;43.220;27.878;2023-08-30T03:10:36;22.65;;;19.55;;
75506;SDS011;64086;43.220;27.878;2023-08-30T03:13:01;21.60;;;19.48;;
75506;SDS011;64086;43.220;27.878;2023-08-30T03:15:27;20.60;;;18.77;;
75506;SDS011;64086;43.220;27.878;2023-08-30T03:17:52;22.13;;;19.13;;
75506;SDS011;64086;43.220;27.878;2023-08-30T03:20:18;21.17;;;19.30;;
75506;SDS011;64086;43.220;27.878;2023-08-30T03:22:44;21.20;;;19.27;;
75506;SDS011;64086;43.220;27.878;2023-08-30T03:25:09;20.48;;;18.63;;
75506;SDS011;64086;43.220;27.878;2023-08-30T03:27:35;20.23;;;18.25;;
75506;SDS011;64086;43.220;27.878;2023-08-30T03:30:01;19.92;;;18.17;;
75506;SDS011;64086;43.220;27.878;2023-08-30T03:32:27;21.23;;;19.35;;
75506;SDS011;64086;43.220;27.878;2023-08-30T03:34:53;21.20;;;19.30;;
75506;SDS011;64086;43.220;27.878;2023-08-30T03:37:18;21.70;;;19.25;;
75506;SDS011;64086;43.220;27.878;2023-08-30T03:39:44;21.30;;;19.23;;
75506;SDS011;64086;43.220;27.878;2023-08-30T03:42:09;22.33;;;20.02;;
75506;SDS011;64086;43.220;27.878;2023-08-30T03:44:34;21.90;;;19.88;;
75506;SDS011;64086;43.220;27.878;2023-08-30T03:47:00;22.48;;;20.35;;
75506;SDS011;64086;43.220;27.878;2023-08-30T03:49:25;22.90;;;20.75;;
75506;SDS011;64086;43.220;27.878;2023-08-30T03:51:51;23.38;;;21.55;;
75506;SDS011;64086;43.220;27.878;2023-08-30T03:54:16;23.83;;;21.55;;
75506;SDS011;64086;43.220;27.878;2023-08-30T03:56:43;23.05;;;20.83;;
75506;SDS011;64086;43.220;27.878;2023-08-30T03:59:09;23.50;;;21.00;;
75506;SDS011;64086;43.220;27.878;2023-08-30T04:01:34;21.75;;;19.75;;
75506;SDS011;64086;43.220;27.878;2023-08-30T04:04:00;21.27;;;19.48;;
75506;SDS011;64086;43.220;27.878;2023-08-30T04:06:25;21.13;;;19.20;;
75506;SDS011;64086;43.220;27.878;2023-08-30T04:08:50;20.60;;;18.75;;
75506;SDS011;64086;43.220;27.878;2023-08-30T04:11:16;20.92;;;19.02;;
75506;SDS011;64086;43.220;27.878;2023-08-30T04:13:41;19.60;;;17.92;;
75506;SDS011;64086;43.220;27.878;2023-08-30T04:16:07;19.67;;;17.88;;
75506;SDS011;64086;43.220;27.878;2023-08-30T04:18:32;19.52;;;17.45;;
75506;SDS011;64086;43.220;27.878;2023-08-30T04:20:58;18.45;;;16.40;;
75506;SDS011;64086;43.220;27.878;2023-08-30T04:23:23;17.67;;;16.08;;
75506;SDS011;64086;43.220;27.878;2023-08-30T04:25:49;17.13;;;15.43;;
75506;SDS011;64086;43.220;27.878;2023-08-30T04:28:14;17.75;;;16.15;;
75506;SDS011;64086;43.220;27.878;2023-08-30T04:30:39;16.48;;;14.90;;
75506;SDS011;64086;43.220;27.878;2023-08-30T04:33:05;15.95;;;14.02;;
75506;SDS011;64086;43.220;27.878;2023-08-30T04:35:31;15.77;;;14.32;;
75506;SDS011;64086;43.220;27.878;2023-08-30T04:37:57;15.23;;;13.70;;
75506;SDS011;64086;43.220;27.878;2023-08-30T04:40:24;15.80;;;14.30;;
75506;SDS011;64086;43.220;27.878;2023-08-30T04:42:49;16.13;;;14.38;;
75506;SDS011;64086;43.220;27.878;2023-08-30T04:45:15;15.23;;;13.82;;
75506;SDS011;64086;43.220;27.878;2023-08-30T04:47:40;14.57;;;13.38;;
75506;SDS011;64086;43.220;27.878;2023-08-30T04:50:08;14.15;;;12.50;;
75506;SDS011;64086;43.220;27.878;2023-08-30T04:52:33;14.60;;;12.70;;
75506;SDS011;64086;43.220;27.878;2023-08-30T04:54:59;13.80;;;12.50;;
75506;SDS011;64086;43.220;27.878;2023-08-30T04:57:24;13.57;;;12.38;;
75506;SDS011;64086;43.220;27.878;2023-08-30T04:59:50;12.85;;;11.55;;
75506;SDS011;64086;43.220;27.878;2023-08-30T05:02:15;14.73;;;12.45;;
75506;SDS011;64086;43.220;27.878;2023-08-30T05:04:41;13.65;;;12.15;;
75506;SDS011;64086;43.220;27.878;2023-08-30T05:07:06;15.35;;;11.68;;
75506;SDS011;64086;43.220;27.878;2023-08-30T05:09:32;12.43;;;11.45;;
75506;SDS011;64086;43.220;27.878;2023-08-30T05:11:59;12.05;;;11.05;;
75506;SDS011;64086;43.220;27.878;2023-08-30T05:14:25;11.85;;;10.77;;
75506;SDS011;64086;43.220;27.878;2023-08-30T05:16:50;12.15;;;11.23;;
75506;SDS011;64086;43.220;27.878;2023-08-30T05:19:16;11.95;;;10.95;;
75506;SDS011;64086;43.220;27.878;2023-08-30T05:21:42;12.75;;;11.38;;
75506;SDS011;64086;43.220;27.878;2023-08-30T05:24:08;12.95;;;11.63;;
75506;SDS011;64086;43.220;27.878;2023-08-30T05:26:33;13.13;;;11.25;;
75506;SDS011;64086;43.220;27.878;2023-08-30T05:28:59;12.05;;;10.90;;
75506;SDS011;64086;43.220;27.878;2023-08-30T05:31:24;13.55;;;11.48;;
75506;SDS011;64086;43.220;27.878;2023-08-30T05:33:50;10.85;;;9.75;;
75506;SDS011;64086;43.220;27.878;2023-08-30T05:36:15;12.65;;;11.32;;
75506;SDS011;64086;43.220;27.878;2023-08-30T05:38:41;11.73;;;10.70;;
75506;SDS011;64086;43.220;27.878;2023-08-30T05:41:07;12.80;;;11.50;;
75506;SDS011;64086;43.220;27.878;2023-08-30T05:43:32;12.13;;;11.15;;
75506;SDS011;64086;43.220;27.878;2023-08-30T05:45:58;11.98;;;10.82;;
75506;SDS011;64086;43.220;27.878;2023-08-30T05:48:30;12.70;;;11.38;;
75506;SDS011;64086;43.220;27.878;2023-08-30T05:50:55;12.38;;;10.93;;
75506;SDS011;64086;43.220;27.878;2023-08-30T05:53:21;13.32;;;11.95;;
75506;SDS011;64086;43.220;27.878;2023-08-30T05:55:46;12.25;;;11.25;;
75506;SDS011;64086;43.220;27.878;2023-08-30T05:58:12;13.57;;;12.38;;
75506;SDS011;64086;43.220;27.878;2023-08-30T06:00:39;13.88;;;11.40;;
75506;SDS011;64086;43.220;27.878;2023-08-30T06:03:04;12.70;;;11.52;;
75506;SDS011;64086;43.220;27.878;2023-08-30T06:05:29;13.13;;;12.02;;
75506;SDS011;64086;43.220;27.878;2023-08-30T06:07:55;13.82;;;12.73;;
75506;SDS011;64086;43.220;27.878;2023-08-30T06:10:20;14.75;;;13.13;;
75506;SDS011;64086;43.220;27.878;2023-08-30T06:12:46;14.82;;;12.88;;
75506;SDS011;64086;43.220;27.878;2023-08-30T06:15:12;13.82;;;12.73;;
75506;SDS011;64086;43.220;27.878;2023-08-30T06:17:37;13.82;;;12.63;;
75506;SDS011;64086;43.220;27.878;2023-08-30T06:20:03;13.68;;;12.38;;
75506;SDS011;64086;43.220;27.878;2023-08-30T06:22:29;12.35;;;11.27;;
75506;SDS011;64086;43.220;27.878;2023-08-30T06:24:55;13.65;;;11.85;;
75506;SDS011;64086;43.220;27.878;2023-08-30T06:27:20;13.05;;;11.93;;
75506;SDS011;64086;43.220;27.878;2023-08-30T06:29:46;14.52;;;12.75;;
75506;SDS011;64086;43.220;27.878;2023-08-30T06:32:11;14.27;;;12.27;;
75506;SDS011;64086;43.220;27.878;2023-08-30T06:34:37;13.30;;;12.20;;
75506;SDS011;64086;43.220;27.878;2023-08-30T06:37:02;13.63;;;12.50;;
75506;SDS011;64086;43.220;27.878;2023-08-30T06:39:34;14.20;;;12.98;;
75506;SDS011;64086;43.220;27.878;2023-08-30T06:42:01;14.40;;;12.18;;
75506;SDS011;64086;43.220;27.878;2023-08-30T06:44:27;15.02;;;13.10;;
75506;SDS011;64086;43.220;27.878;2023-08-30T06:46:53;14.98;;;12.43;;
75506;SDS011;64086;43.220;27.878;2023-08-30T06:49:19;13.27;;;12.18;;
75506;SDS011;64086;43.220;27.878;2023-08-30T06:51:44;13.88;;;12.57;;
75506;SDS011;64086;43.220;27.878;2023-08-30T06:54:10;14.27;;;13.05;;
75506;SDS011;64086;43.220;27.878;2023-08-30T06:56:35;14.07;;;12.82;;
75506;SDS011;64086;43.220;27.878;2023-08-30T06:59:01;15.45;;;13.88;;
75506;SDS011;64086;43.220;27.878;2023-08-30T07:01:26;14.10;;;12.80;;
75506;SDS011;64086;43.220;27.878;2023-08-30T07:03:52;15.20;;;13.80;;
75506;SDS011;64086;43.220;27.878;2023-08-30T07:06:17;13.93;;;12.82;;
75506;SDS011;64086;43.220;27.878;2023-08-30T07:08:43;14.25;;;13.05;;
75506;SDS011;64086;43.220;27.878;2023-08-30T07:11:08;13.98;;;12.52;;
75506;SDS011;64086;43.220;27.878;2023-08-30T07:13:35;13.50;;;12.40;;
75506;SDS011;64086;43.220;27.878;2023-08-30T07:16:00;13.75;;;12.60;;
75506;SDS011;64086;43.220;27.878;2023-08-30T07:18:26;13.73;;;12.52;;
75506;SDS011;64086;43.220;27.878;2023-08-30T07:20:51;13.85;;;12.57;;
75506;SDS011;64086;43.220;27.878;2023-08-30T07:23:17;13.70;;;12.27;;
75506;SDS011;64086;43.220;27.878;2023-08-30T07:25:42;13.65;;;12.05;;
75506;SDS011;64086;43.220;27.878;2023-08-30T07:28:08;12.98;;;11.60;;
75506;SDS011;64086;43.220;27.878;2023-08-30T07:30:33;12.93;;;11.82;;
75506;SDS011;64086;43.220;27.878;2023-08-30T07:33:00;13.32;;;11.93;;
75506;SDS011;64086;43.220;27.878;2023-08-30T07:35:25;12.80;;;11.60;;
75506;SDS011;64086;43.220;27.878;2023-08-30T07:37:51;12.40;;;11.40;;
75506;SDS011;64086;43.220;27.878;2023-08-30T07:40:16;13.35;;;11.95;;
75506;SDS011;64086;43.220;27.878;2023-08-30T07:42:42;12.25;;;11.15;;
75506;SDS011;64086;43.220;27.878;2023-08-30T07:45:07;12.30;;;11.02;;
75506;SDS011;64086;43.220;27.878;2023-08-30T07:47:34;12.80;;;11.70;;
75506;SDS011;64086;43.220;27.878;2023-08-30T07:49:59;12.75;;;11.57;;
75506;SDS011;64086;43.220;27.878;2023-08-30T07:52:25;12.93;;;11.60;;
75506;SDS011;64086;43.220;27.878;2023-08-30T07:54:50;15.15;;;12.43;;
75506;SDS011;64086;43.220;27.878;2023-08-30T07:57:16;13.05;;;12.05;;
75506;SDS011;64086;43.220;27.878;2023-08-30T07:59:41;13.43;;;12.00;;
75506;SDS011;64086;43.220;27.878;2023-08-30T08:02:07;13.05;;;12.05;;
75506;SDS011;64086;43.220;27.878;2023-08-30T08:04:36;13.80;;;12.48;;
75506;SDS011;64086;43.220;27.878;2023-08-30T08:07:02;13.18;;;12.13;;
75506;SDS011;64086;43.220;27.878;2023-08-30T08:09:29;13.85;;;12.45;;
75506;SDS011;64086;43.220;27.878;2023-08-30T08:11:55;13.57;;;12.38;;
75506;SDS011;64086;43.220;27.878;2023-08-30T08:14:21;16.33;;;13.18;;
75506;SDS011;64086;43.220;27.878;2023-08-30T08:16:49;14.13;;;12.68;;
75506;SDS011;64086;43.220;27.878;2023-08-30T08:19:15;13.77;;;12.48;;
75506;SDS011;64086;43.220;27.878;2023-08-30T08:21:41;14.32;;;12.82;;
75506;SDS011;64086;43.220;27.878;2023-08-30T08:24:06;13.48;;;12.32;;
75506;SDS011;64086;43.220;27.878;2023-08-30T08:26:32;13.70;;;12.50;;
75506;SDS011;64086;43.220;27.878;2023-08-30T08:28:57;17.65;;;12.90;;
75506;SDS011;64086;43.220;27.878;2023-08-30T08:31:23;15.60;;;13.45;;
75506;SDS011;64086;43.220;27.878;2023-08-30T08:34:04;15.00;;;13.10;;
75506;SDS011;64086;43.220;27.878;2023-08-30T08:38:56;13.80;;;12.60;;
75506;SDS011;64086;43.220;27.878;2023-08-30T08:41:22;14.95;;;13.20;;
75506;SDS011;64086;43.220;27.878;2023-08-30T08:43:53;15.65;;;13.45;;
75506;SDS011;64086;43.220;27.878;2023-08-30T08:46:18;15.18;;;13.13;;
75506;SDS011;64086;43.220;27.878;2023-08-30T08:48:45;14.15;;;12.75;;
75506;SDS011;64086;43.220;27.878;2023-08-30T08:51:13;14.18;;;12.73;;
75506;SDS011;64086;43.220;27.878;2023-08-30T08:53:39;14.75;;;12.73;;
75506;SDS011;64086;43.220;27.878;2023-08-30T08:56:05;14.70;;;13.15;;
75506;SDS011;64086;43.220;27.878;2023-08-30T08:58:33;15.52;;;12.73;;
75506;SDS011;64086;43.220;27.878;2023-08-30T09:01:00;13.77;;;12.43;;
75506;SDS011;64086;43.220;27.878;2023-08-30T09:03:26;14.40;;;12.65;;
75506;SDS011;64086;43.220;27.878;2023-08-30T09:05:51;15.27;;;12.80;;
75506;SDS011;64086;43.220;27.878;2023-08-30T09:08:17;15.52;;;12.25;;
75506;SDS011;64086;43.220;27.878;2023-08-30T09:10:43;13.13;;;11.98;;
75506;SDS011;64086;43.220;27.878;2023-08-30T09:13:08;14.63;;;12.35;;
75506;SDS011;64086;43.220;27.878;2023-08-30T09:15:34;13.98;;;12.52;;
75506;SDS011;64086;43.220;27.878;2023-08-30T09:18:02;13.35;;;12.23;;
75506;SDS011;64086;43.220;27.878;2023-08-30T09:20:27;13.38;;;12.05;;
75506;SDS011;64086;43.220;27.878;2023-08-30T09:22:53;12.95;;;11.73;;
75506;SDS011;64086;43.220;27.878;2023-08-30T09:25:26;15.07;;;12.45;;
75506;SDS011;64086;43.220;27.878;2023-08-30T09:27:57;13.95;;;12.50;;
75506;SDS011;64086;43.220;27.878;2023-08-30T09:30:24;13.43;;;12.00;;
75506;SDS011;64086;43.220;27.878;2023-08-30T09:32:50;12.90;;;11.65;;
75506;SDS011;64086;43.220;27.878;2023-08-30T09:35:16;13.20;;;11.93;;
75506;SDS011;64086;43.220;27.878;2023-08-30T09:37:44;13.68;;;12.10;;
75506;SDS011;64086;43.220;27.878;2023-08-30T09:40:10;13.07;;;11.75;;
75506;SDS011;64086;43.220;27.878;2023-08-30T09:42:39;12.63;;;11.32;;
75506;SDS011;64086;43.220;27.878;2023-08-30T09:45:08;14.60;;;11.85;;
75506;SDS011;64086;43.220;27.878;2023-08-30T09:47:51;13.40;;;12.13;;
75506;SDS011;64086;43.220;27.878;2023-08-30T09:50:17;13.27;;;12.07;;
75506;SDS011;64086;43.220;27.878;2023-08-30T09:52:44;13.05;;;11.50;;
75506;SDS011;64086;43.220;27.878;2023-08-30T09:55:14;12.75;;;11.55;;
75506;SDS011;64086;43.220;27.878;2023-08-30T09:57:40;14.57;;;12.13;;
75506;SDS011;64086;43.220;27.878;2023-08-30T10:00:07;12.55;;;11.35;;
75506;SDS011;64086;43.220;27.878;2023-08-30T10:02:34;13.25;;;11.98;;
75506;SDS011;64086;43.220;27.878;2023-08-30T10:04:59;12.65;;;11.10;;
75506;SDS011;64086;43.220;27.878;2023-08-30T10:07:25;13.55;;;11.27;;
75506;SDS011;64086;43.220;27.878;2023-08-30T10:09:51;12.63;;;11.32;;
75506;SDS011;64086;43.220;27.878;2023-08-30T10:12:22;13.32;;;11.45;;
75506;SDS011;64086;43.220;27.878;2023-08-30T10:14:48;12.60;;;11.48;;
75506;SDS011;64086;43.220;27.878;2023-08-30T10:17:14;12.68;;;11.02;;
75506;SDS011;64086;43.220;27.878;2023-08-30T10:19:42;12.20;;;10.93;;
75506;SDS011;64086;43.220;27.878;2023-08-30T10:22:08;13.10;;;11.00;;
75506;SDS011;64086;43.220;27.878;2023-08-30T10:24:44;12.90;;;11.52;;
75506;SDS011;64086;43.220;27.878;2023-08-30T10:27:13;13.02;;;11.10;;
75506;SDS011;64086;43.220;27.878;2023-08-30T10:29:40;13.13;;;11.45;;
75506;SDS011;64086;43.220;27.878;2023-08-30T10:32:06;14.27;;;11.18;;
75506;SDS011;64086;43.220;27.878;2023-08-30T10:34:35;12.88;;;11.55;;
75506;SDS011;64086;43.220;27.878;2023-08-30T10:37:10;15.40;;;11.35;;
75506;SDS011;64086;43.220;27.878;2023-08-30T10:39:37;12.40;;;11.07;;
75506;SDS011;64086;43.220;27.878;2023-08-30T10:42:10;14.90;;;11.23;;
75506;SDS011;64086;43.220;27.878;2023-08-30T10:44:58;13.35;;;11.65;;
75506;SDS011;64086;43.220;27.878;2023-08-30T10:47:27;12.32;;;11.13;;
75506;SDS011;64086;43.220;27.878;2023-08-30T10:49:56;11.82;;;10.80;;
75506;SDS011;64086;43.220;27.878;2023-08-30T10:52:22;14.27;;;11.20;;
75506;SDS011;64086;43.220;27.878;2023-08-30T10:54:49;14.15;;;10.77;;
75506;SDS011;64086;43.220;27.878;2023-08-30T10:57:19;16.80;;;10.88;;
75506;SDS011;64086;43.220;27.878;2023-08-30T11:02:34;15.18;;;10.85;;
75506;SDS011;64086;43.220;27.878;2023-08-30T11:05:01;11.52;;;10.43;;
75506;SDS011;64086;43.220;27.878;2023-08-30T11:07:28;12.00;;;10.75;;
75506;SDS011;64086;43.220;27.878;2023-08-30T11:09:54;12.02;;;10.70;;
75506;SDS011;64086;43.220;27.878;2023-08-30T11:12:19;15.73;;;10.60;;
75506;SDS011;64086;43.220;27.878;2023-08-30T11:14:48;16.15;;;11.07;;
75506;SDS011;64086;43.220;27.878;2023-08-30T11:17:15;13.50;;;10.90;;
75506;SDS011;64086;43.220;27.878;2023-08-30T11:19:42;12.27;;;10.15;;
75506;SDS011;64086;43.220;27.878;2023-08-30T11:22:08;22.40;;;10.15;;
75506;SDS011;64086;43.220;27.878;2023-08-30T11:24:34;14.80;;;10.65;;
75506;SDS011;64086;43.220;27.878;2023-08-30T11:26:59;12.23;;;10.63;;
75506;SDS011;64086;43.220;27.878;2023-08-30T11:29:26;11.55;;;10.40;;
75506;SDS011;64086;43.220;27.878;2023-08-30T11:31:52;11.45;;;10.15;;
75506;SDS011;64086;43.220;27.878;2023-08-30T11:34:20;13.05;;;9.75;;
75506;SDS011;64086;43.220;27.878;2023-08-30T11:36:47;11.57;;;10.18;;
75506;SDS011;64086;43.220;27.878;2023-08-30T11:39:13;11.55;;;10.00;;
75506;SDS011;64086;43.220;27.878;2023-08-30T11:41:39;11.05;;;9.85;;
75506;SDS011;64086;43.220;27.878;2023-08-30T11:44:05;13.15;;;11.00;;
75506;SDS011;64086;43.220;27.878;2023-08-30T11:46:30;13.63;;;9.45;;
75506;SDS011;64086;43.220;27.878;2023-08-30T11:48:57;14.23;;;10.38;;
75506;SDS011;64086;43.220;27.878;2023-08-30T11:51:22;11.93;;;9.35;;
75506;SDS011;64086;43.220;27.878;2023-08-30T11:53:48;15.90;;;10.10;;
75506;SDS011;64086;43.220;27.878;2023-08-30T11:56:14;14.85;;;10.18;;
75506;SDS011;64086;43.220;27.878;2023-08-30T11:58:41;13.68;;;10.10;;
75506;SDS011;64086;43.220;27.878;2023-08-30T12:01:08;11.20;;;10.00;;
75506;SDS011;64086;43.220;27.878;2023-08-30T12:03:34;11.00;;;9.88;;
75506;SDS011;64086;43.220;27.878;2023-08-30T12:05:59;13.52;;;9.75;;
75506;SDS011;64086;43.220;27.878;2023-08-30T12:08:25;10.68;;;9.63;;
75506;SDS011;64086;43.220;27.878;2023-08-30T12:10:53;12.00;;;9.60;;
75506;SDS011;64086;43.220;27.878;2023-08-30T12:13:20;10.43;;;9.30;;
75506;SDS011;64086;43.220;27.878;2023-08-30T12:15:48;11.35;;;9.85;;
75506;SDS011;64086;43.220;27.878;2023-08-30T12:18:14;12.10;;;9.80;;
75506;SDS011;64086;43.220;27.878;2023-08-30T12:20:40;10.32;;;9.25;;
75506;SDS011;64086;43.220;27.878;2023-08-30T12:23:19;14.25;;;9.88;;
75506;SDS011;64086;43.220;27.878;2023-08-30T12:25:55;10.52;;;9.43;;
75506;SDS011;64086;43.220;27.878;2023-08-30T12:28:24;12.65;;;9.85;;
75506;SDS011;64086;43.220;27.878;2023-08-30T12:30:51;12.05;;;9.77;;
75506;SDS011;64086;43.220;27.878;2023-08-30T12:33:16;11.93;;;9.75;;
75506;SDS011;64086;43.220;27.878;2023-08-30T12:35:43;11.55;;;9.20;;
75506;SDS011;64086;43.220;27.878;2023-08-30T12:38:09;10.55;;;9.38;;
75506;SDS011;64086;43.220;27.878;2023-08-30T12:40:35;14.65;;;9.70;;
75506;SDS011;64086;43.220;27.878;2023-08-30T12:43:00;12.45;;;10.10;;
75506;SDS011;64086;43.220;27.878;2023-08-30T12:45:26;11.10;;;9.88;;
75506;SDS011;64086;43.220;27.878;2023-08-30T12:47:51;13.93;;;9.40;;
75506;SDS011;64086;43.220;27.878;2023-08-30T12:50:17;14.70;;;10.00;;
75506;SDS011;64086;43.220;27.878;2023-08-30T12:52:42;14.52;;;9.90;;
75506;SDS011;64086;43.220;27.878;2023-08-30T12:55:08;11.68;;;9.63;;
75506;SDS011;64086;43.220;27.878;2023-08-30T12:57:33;13.80;;;9.98;;
75506;SDS011;64086;43.220;27.878;2023-08-30T12:59:59;12.32;;;9.38;;
75506;SDS011;64086;43.220;27.878;2023-08-30T13:02:24;10.95;;;9.80;;
75506;SDS011;64086;43.220;27.878;2023-08-30T13:04:50;11.13;;;9.07;;
75506;SDS011;64086;43.220;27.878;2023-08-30T13:07:15;14.48;;;9.77;;
75506;SDS011;64086;43.220;27.878;2023-08-30T13:09:41;12.95;;;9.63;;
75506;SDS011;64086;43.220;27.878;2023-08-30T13:12:06;13.73;;;9.65;;
75506;SDS011;64086;43.220;27.878;2023-08-30T13:14:32;11.27;;;9.60;;
75506;SDS011;64086;43.220;27.878;2023-08-30T13:16:57;10.60;;;9.32;;
75506;SDS011;64086;43.220;27.878;2023-08-30T13:19:23;12.30;;;9.38;;
75506;SDS011;64086;43.220;27.878;2023-08-30T13:21:48;13.77;;;9.77;;
75506;SDS011;64086;43.220;27.878;2023-08-30T13:24:14;12.48;;;10.10;;
75506;SDS011;64086;43.220;27.878;2023-08-30T13:26:39;11.60;;;8.95;;
75506;SDS011;64086;43.220;27.878;2023-08-30T13:29:05;12.73;;;9.55;;
75506;SDS011;64086;43.220;27.878;2023-08-30T13:31:30;10.65;;;8.90;;
75506;SDS011;64086;43.220;27.878;2023-08-30T13:33:55;12.35;;;9.15;;
75506;SDS011;64086;43.220;27.878;2023-08-30T13:36:21;12.23;;;9.50;;
75506;SDS011;64086;43.220;27.878;2023-08-30T13:38:46;12.75;;;10.15;;
75506;SDS011;64086;43.220;27.878;2023-08-30T13:41:12;13.25;;;9.70;;
75506;SDS011;64086;43.220;27.878;2023-08-30T13:43:37;15.40;;;9.43;;
75506;SDS011;64086;43.220;27.878;2023-08-30T13:46:03;13.43;;;9.52;;
75506;SDS011;64086;43.220;27.878;2023-08-30T13:48:29;11.07;;;9.40;;
75506;SDS011;64086;43.220;27.878;2023-08-30T13:50:54;11.88;;;9.50;;
75506;SDS011;64086;43.220;27.878;2023-08-30T13:53:20;15.25;;;9.88;;
75506;SDS011;64086;43.220;27.878;2023-08-30T13:55:46;14.50;;;9.52;;
75506;SDS011;64086;43.220;27.878;2023-08-30T13:58:13;13.73;;;9.82;;
75506;SDS011;64086;43.220;27.878;2023-08-30T14:00:39;12.00;;;9.38;;
75506;SDS011;64086;43.220;27.878;2023-08-30T14:03:05;13.13;;;8.90;;
75506;SDS011;64086;43.220;27.878;2023-08-30T14:05:30;14.10;;;9.35;;
75506;SDS011;64086;43.220;27.878;2023-08-30T14:07:56;16.27;;;9.27;;
75506;SDS011;64086;43.220;27.878;2023-08-30T14:10:21;10.68;;;9.43;;
75506;SDS011;64086;43.220;27.878;2023-08-30T14:12:47;12.45;;;9.07;;
75506;SDS011;64086;43.220;27.878;2023-08-30T14:15:12;13.30;;;8.65;;
75506;SDS011;64086;43.220;27.878;2023-08-30T14:17:38;14.60;;;8.88;;
75506;SDS011;64086;43.220;27.878;2023-08-30T14:20:03;13.30;;;8.52;;